sensor_id;sensor_type;location;lat;lon;timestamp;temperature;humidity
10192;DHT22;17580;50.850;4.504;2023-08-24T00:01:37;19.90;42.80
10192;DHT22;17580;50.850;4.504;2023-08-24T00:04:04;19.90;41.60
10192;DHT22;17580;50.850;4.504;2023-08-24T00:06:32;19.90;42.20
10192;DHT22;17580;50.850;4.504;2023-08-24T00:08:59;19.80;43.30
10192;DHT22;17580;50.850;4.504;2023-08-24T00:11:30;19.80;43.10
10192;DHT22;17580;50.850;4.504;2023-08-24T00:13:57;19.80;43.60
10192;DHT22;17580;50.850;4.504;2023-08-24T00:16:24;19.70;43.80
10192;DHT22;17580;50.850;4.504;2023-08-24T00:18:51;19.70;45.10
10192;DHT22;17580;50.850;4.504;2023-08-24T00:21:18;19.70;45.10
10192;DHT22;17580;50.850;4.504;2023-08-24T00:23:48;19.70;45.10
10192;DHT22;17580;50.850;4.504;2023-08-24T00:26:15;19.70;45.10
10192;DHT22;17580;50.850;4.504;2023-08-24T00:28:45;19.70;45.20
10192;DHT22;17580;50.850;4.504;2023-08-24T00:31:12;19.70;44.60
10192;DHT22;17580;50.850;4.504;2023-08-24T00:33:39;19.70;45.50
10192;DHT22;17580;50.850;4.504;2023-08-24T00:36:07;19.70;45.40
10192;DHT22;17580;50.850;4.504;2023-08-24T00:38:34;19.80;46.20
10192;DHT22;17580;50.850;4.504;2023-08-24T00:41:01;19.80;44.20
10192;DHT22;17580;50.850;4.504;2023-08-24T00:43:28;19.90;43.80
10192;DHT22;17580;50.850;4.504;2023-08-24T00:45:58;19.90;44.00
10192;DHT22;17580;50.850;4.504;2023-08-24T00:48:26;19.90;44.70
10192;DHT22;17580;50.850;4.504;2023-08-24T00:50:54;19.90;44.10
10192;DHT22;17580;50.850;4.504;2023-08-24T00:53:24;19.90;43.70
10192;DHT22;17580;50.850;4.504;2023-08-24T00:55:52;19.90;43.80
10192;DHT22;17580;50.850;4.504;2023-08-24T00:58:19;20.00;43.60
10192;DHT22;17580;50.850;4.504;2023-08-24T01:00:46;20.00;42.00
10192;DHT22;17580;50.850;4.504;2023-08-24T01:03:15;19.90;45.30
10192;DHT22;17580;50.850;4.504;2023-08-24T01:05:42;19.90;43.40
10192;DHT22;17580;50.850;4.504;2023-08-24T01:08:10;20.00;43.80
10192;DHT22;17580;50.850;4.504;2023-08-24T01:10:43;20.00;44.10
10192;DHT22;17580;50.850;4.504;2023-08-24T01:13:17;20.00;45.50
10192;DHT22;17580;50.850;4.504;2023-08-24T01:15:58;20.00;44.60
10192;DHT22;17580;50.850;4.504;2023-08-24T01:18:27;19.90;44.80
10192;DHT22;17580;50.850;4.504;2023-08-24T01:20:55;20.00;45.00
10192;DHT22;17580;50.850;4.504;2023-08-24T01:23:32;20.00;44.80
10192;DHT22;17580;50.850;4.504;2023-08-24T01:26:13;20.00;44.40
10192;DHT22;17580;50.850;4.504;2023-08-24T01:28:42;20.10;45.20
10192;DHT22;17580;50.850;4.504;2023-08-24T01:31:10;20.10;44.70
10192;DHT22;17580;50.850;4.504;2023-08-24T01:33:37;20.00;45.90
10192;DHT22;17580;50.850;4.504;2023-08-24T01:36:07;20.00;45.10
10192;DHT22;17580;50.850;4.504;2023-08-24T01:38:34;20.10;45.70
10192;DHT22;17580;50.850;4.504;2023-08-24T01:41:09;20.10;46.00
10192;DHT22;17580;50.850;4.504;2023-08-24T01:43:40;20.10;47.20
10192;DHT22;17580;50.850;4.504;2023-08-24T01:46:12;20.10;47.80
10192;DHT22;17580;50.850;4.504;2023-08-24T01:48:42;20.10;46.80
10192;DHT22;17580;50.850;4.504;2023-08-24T01:51:10;20.10;47.80
10192;DHT22;17580;50.850;4.504;2023-08-24T01:53:38;20.10;46.10
10192;DHT22;17580;50.850;4.504;2023-08-24T01:56:09;20.20;44.50
10192;DHT22;17580;50.850;4.504;2023-08-24T01:58:43;20.20;45.10
10192;DHT22;17580;50.850;4.504;2023-08-24T02:01:14;20.20;44.70
10192;DHT22;17580;50.850;4.504;2023-08-24T02:03:41;20.20;43.50
10192;DHT22;17580;50.850;4.504;2023-08-24T02:06:08;20.20;43.50
10192;DHT22;17580;50.850;4.504;2023-08-24T02:08:35;20.20;43.00
10192;DHT22;17580;50.850;4.504;2023-08-24T02:11:02;20.20;44.30
10192;DHT22;17580;50.850;4.504;2023-08-24T02:13:29;20.20;48.10
10192;DHT22;17580;50.850;4.504;2023-08-24T02:16:08;20.10;61.90
10192;DHT22;17580;50.850;4.504;2023-08-24T02:18:35;19.80;57.40
10192;DHT22;17580;50.850;4.504;2023-08-24T02:21:07;19.70;61.20
10192;DHT22;17580;50.850;4.504;2023-08-24T02:23:34;19.60;64.70
10192;DHT22;17580;50.850;4.504;2023-08-24T02:26:01;19.60;67.50
10192;DHT22;17580;50.850;4.504;2023-08-24T02:28:30;19.50;68.40
10192;DHT22;17580;50.850;4.504;2023-08-24T02:31:00;19.40;72.50
10192;DHT22;17580;50.850;4.504;2023-08-24T02:33:29;19.30;68.60
10192;DHT22;17580;50.850;4.504;2023-08-24T02:35:56;19.20;70.50
10192;DHT22;17580;50.850;4.504;2023-08-24T02:38:24;19.10;72.00
10192;DHT22;17580;50.850;4.504;2023-08-24T02:41:00;19.10;72.70
10192;DHT22;17580;50.850;4.504;2023-08-24T02:43:27;19.00;72.70
10192;DHT22;17580;50.850;4.504;2023-08-24T02:46:00;19.10;74.50
10192;DHT22;17580;50.850;4.504;2023-08-24T02:48:28;19.00;73.40
10192;DHT22;17580;50.850;4.504;2023-08-24T02:50:57;19.00;73.50
10192;DHT22;17580;50.850;4.504;2023-08-24T02:53:24;19.10;72.40
10192;DHT22;17580;50.850;4.504;2023-08-24T02:55:51;19.00;73.40
10192;DHT22;17580;50.850;4.504;2023-08-24T02:58:18;19.00;75.40
10192;DHT22;17580;50.850;4.504;2023-08-24T03:00:45;19.00;74.20
10192;DHT22;17580;50.850;4.504;2023-08-24T03:03:13;19.00;73.20
10192;DHT22;17580;50.850;4.504;2023-08-24T03:05:50;19.00;70.70
10192;DHT22;17580;50.850;4.504;2023-08-24T03:08:17;19.00;72.30
10192;DHT22;17580;50.850;4.504;2023-08-24T03:10:45;19.00;72.90
10192;DHT22;17580;50.850;4.504;2023-08-24T03:13:14;19.10;71.90
10192;DHT22;17580;50.850;4.504;2023-08-24T03:15:41;19.10;70.30
10192;DHT22;17580;50.850;4.504;2023-08-24T03:18:11;19.10;72.50
10192;DHT22;17580;50.850;4.504;2023-08-24T03:20:40;19.10;70.20
10192;DHT22;17580;50.850;4.504;2023-08-24T03:23:07;19.00;70.40
10192;DHT22;17580;50.850;4.504;2023-08-24T03:25:37;19.00;71.70
10192;DHT22;17580;50.850;4.504;2023-08-24T03:28:06;18.90;72.30
10192;DHT22;17580;50.850;4.504;2023-08-24T03:30:34;18.90;73.80
10192;DHT22;17580;50.850;4.504;2023-08-24T03:33:02;18.90;73.50
10192;DHT22;17580;50.850;4.504;2023-08-24T03:35:29;18.90;72.30
10192;DHT22;17580;50.850;4.504;2023-08-24T03:37:58;18.90;73.80
10192;DHT22;17580;50.850;4.504;2023-08-24T03:40:25;18.90;72.90
10192;DHT22;17580;50.850;4.504;2023-08-24T03:42:52;18.80;73.10
10192;DHT22;17580;50.850;4.504;2023-08-24T03:45:19;18.80;74.40
10192;DHT22;17580;50.850;4.504;2023-08-24T03:47:46;18.70;73.90
10192;DHT22;17580;50.850;4.504;2023-08-24T03:50:13;18.70;73.80
10192;DHT22;17580;50.850;4.504;2023-08-24T03:52:41;18.70;76.00
10192;DHT22;17580;50.850;4.504;2023-08-24T03:55:10;18.70;76.00
10192;DHT22;17580;50.850;4.504;2023-08-24T03:57:37;18.70;74.70
10192;DHT22;17580;50.850;4.504;2023-08-24T04:00:05;18.70;75.20
10192;DHT22;17580;50.850;4.504;2023-08-24T04:02:37;18.70;74.90
10192;DHT22;17580;50.850;4.504;2023-08-24T04:05:04;18.70;74.60
10192;DHT22;17580;50.850;4.504;2023-08-24T04:07:31;18.60;75.30
10192;DHT22;17580;50.850;4.504;2023-08-24T04:09:59;18.60;75.60
10192;DHT22;17580;50.850;4.504;2023-08-24T04:12:27;18.60;75.50
10192;DHT22;17580;50.850;4.504;2023-08-24T04:14:54;18.60;76.30
10192;DHT22;17580;50.850;4.504;2023-08-24T04:17:23;18.60;75.90
10192;DHT22;17580;50.850;4.504;2023-08-24T04:19:50;18.60;77.60
10192;DHT22;17580;50.850;4.504;2023-08-24T04:22:18;18.50;76.80
10192;DHT22;17580;50.850;4.504;2023-08-24T04:24:45;18.50;77.50
10192;DHT22;17580;50.850;4.504;2023-08-24T04:27:12;18.40;77.50
10192;DHT22;17580;50.850;4.504;2023-08-24T04:29:40;18.40;78.80
10192;DHT22;17580;50.850;4.504;2023-08-24T04:32:07;18.30;76.90
10192;DHT22;17580;50.850;4.504;2023-08-24T04:34:35;18.40;77.50
10192;DHT22;17580;50.850;4.504;2023-08-24T04:37:02;18.30;77.20
10192;DHT22;17580;50.850;4.504;2023-08-24T04:39:29;18.30;77.70
10192;DHT22;17580;50.850;4.504;2023-08-24T04:41:56;18.30;77.40
10192;DHT22;17580;50.850;4.504;2023-08-24T04:44:23;18.40;78.90
10192;DHT22;17580;50.850;4.504;2023-08-24T04:46:51;18.30;79.30
10192;DHT22;17580;50.850;4.504;2023-08-24T04:49:18;18.20;79.30
10192;DHT22;17580;50.850;4.504;2023-08-24T04:51:45;18.30;79.80
10192;DHT22;17580;50.850;4.504;2023-08-24T04:54:12;18.20;80.50
10192;DHT22;17580;50.850;4.504;2023-08-24T04:56:39;18.20;79.80
10192;DHT22;17580;50.850;4.504;2023-08-24T04:59:06;18.20;79.40
10192;DHT22;17580;50.850;4.504;2023-08-24T05:01:34;18.20;78.90
10192;DHT22;17580;50.850;4.504;2023-08-24T05:04:02;18.20;80.90
10192;DHT22;17580;50.850;4.504;2023-08-24T05:06:31;18.20;80.30
10192;DHT22;17580;50.850;4.504;2023-08-24T05:08:58;18.30;79.30
10192;DHT22;17580;50.850;4.504;2023-08-24T05:11:27;18.30;78.80
10192;DHT22;17580;50.850;4.504;2023-08-24T05:13:56;18.30;79.30
10192;DHT22;17580;50.850;4.504;2023-08-24T05:16:23;18.30;80.80
10192;DHT22;17580;50.850;4.504;2023-08-24T05:18:50;18.30;80.70
10192;DHT22;17580;50.850;4.504;2023-08-24T05:21:18;18.30;80.20
10192;DHT22;17580;50.850;4.504;2023-08-24T05:23:45;18.40;80.80
10192;DHT22;17580;50.850;4.504;2023-08-24T05:26:12;18.40;81.90
10192;DHT22;17580;50.850;4.504;2023-08-24T05:28:39;18.50;82.10
10192;DHT22;17580;50.850;4.504;2023-08-24T05:31:06;18.50;83.00
10192;DHT22;17580;50.850;4.504;2023-08-24T05:33:33;18.60;82.80
10192;DHT22;17580;50.850;4.504;2023-08-24T05:36:00;18.70;82.40
10192;DHT22;17580;50.850;4.504;2023-08-24T05:38:29;18.80;82.60
10192;DHT22;17580;50.850;4.504;2023-08-24T05:40:56;18.90;82.10
10192;DHT22;17580;50.850;4.504;2023-08-24T05:43:23;18.90;83.00
10192;DHT22;17580;50.850;4.504;2023-08-24T05:45:50;19.00;83.50
10192;DHT22;17580;50.850;4.504;2023-08-24T05:48:17;19.10;83.10
10192;DHT22;17580;50.850;4.504;2023-08-24T05:50:44;19.10;83.80
10192;DHT22;17580;50.850;4.504;2023-08-24T05:53:12;19.20;84.50
10192;DHT22;17580;50.850;4.504;2023-08-24T05:55:40;19.30;83.20
10192;DHT22;17580;50.850;4.504;2023-08-24T05:58:08;19.40;83.30
10192;DHT22;17580;50.850;4.504;2023-08-24T06:00:35;19.40;83.00
10192;DHT22;17580;50.850;4.504;2023-08-24T06:03:03;19.50;83.20
10192;DHT22;17580;50.850;4.504;2023-08-24T06:05:30;19.50;82.90
10192;DHT22;17580;50.850;4.504;2023-08-24T06:07:58;19.60;81.40
10192;DHT22;17580;50.850;4.504;2023-08-24T06:10:25;19.70;82.60
10192;DHT22;17580;50.850;4.504;2023-08-24T06:12:54;19.70;82.00
10192;DHT22;17580;50.850;4.504;2023-08-24T06:15:21;19.80;81.60
10192;DHT22;17580;50.850;4.504;2023-08-24T06:17:50;19.80;81.70
10192;DHT22;17580;50.850;4.504;2023-08-24T06:20:17;19.80;80.80
10192;DHT22;17580;50.850;4.504;2023-08-24T06:22:44;19.80;82.00
10192;DHT22;17580;50.850;4.504;2023-08-24T06:25:11;19.90;83.00
10192;DHT22;17580;50.850;4.504;2023-08-24T06:27:38;20.00;83.30
10192;DHT22;17580;50.850;4.504;2023-08-24T06:30:07;20.00;84.30
10192;DHT22;17580;50.850;4.504;2023-08-24T06:32:35;20.10;83.60
10192;DHT22;17580;50.850;4.504;2023-08-24T06:35:03;20.20;83.30
10192;DHT22;17580;50.850;4.504;2023-08-24T06:37:31;20.30;82.00
10192;DHT22;17580;50.850;4.504;2023-08-24T06:39:58;20.40;82.20
10192;DHT22;17580;50.850;4.504;2023-08-24T06:42:25;20.60;80.20
10192;DHT22;17580;50.850;4.504;2023-08-24T06:44:52;20.60;83.10
10192;DHT22;17580;50.850;4.504;2023-08-24T06:47:21;20.70;79.70
10192;DHT22;17580;50.850;4.504;2023-08-24T06:49:48;20.80;77.00
10192;DHT22;17580;50.850;4.504;2023-08-24T06:52:15;20.90;78.00
10192;DHT22;17580;50.850;4.504;2023-08-24T06:54:42;21.00;77.10
10192;DHT22;17580;50.850;4.504;2023-08-24T06:57:10;21.10;77.00
10192;DHT22;17580;50.850;4.504;2023-08-24T06:59:37;21.20;79.50
10192;DHT22;17580;50.850;4.504;2023-08-24T07:02:04;21.30;78.90
10192;DHT22;17580;50.850;4.504;2023-08-24T07:04:33;21.30;78.00
10192;DHT22;17580;50.850;4.504;2023-08-24T07:07:00;21.40;78.20
10192;DHT22;17580;50.850;4.504;2023-08-24T07:09:27;21.50;77.40
10192;DHT22;17580;50.850;4.504;2023-08-24T07:11:54;21.50;75.60
10192;DHT22;17580;50.850;4.504;2023-08-24T07:14:21;21.60;74.60
10192;DHT22;17580;50.850;4.504;2023-08-24T07:16:48;21.70;73.40
10192;DHT22;17580;50.850;4.504;2023-08-24T07:19:15;21.90;73.20
10192;DHT22;17580;50.850;4.504;2023-08-24T07:21:43;22.00;73.50
10192;DHT22;17580;50.850;4.504;2023-08-24T07:24:11;22.10;71.80
10192;DHT22;17580;50.850;4.504;2023-08-24T07:26:39;22.30;71.20
10192;DHT22;17580;50.850;4.504;2023-08-24T07:29:06;22.40;71.70
10192;DHT22;17580;50.850;4.504;2023-08-24T07:31:35;22.50;72.40
10192;DHT22;17580;50.850;4.504;2023-08-24T07:34:02;22.50;69.00
10192;DHT22;17580;50.850;4.504;2023-08-24T07:36:30;22.50;67.10
10192;DHT22;17580;50.850;4.504;2023-08-24T07:38:58;22.60;68.60
10192;DHT22;17580;50.850;4.504;2023-08-24T07:41:25;22.70;68.30
10192;DHT22;17580;50.850;4.504;2023-08-24T07:43:53;22.80;71.20
10192;DHT22;17580;50.850;4.504;2023-08-24T07:46:20;22.80;69.20
10192;DHT22;17580;50.850;4.504;2023-08-24T07:48:47;22.80;68.40
10192;DHT22;17580;50.850;4.504;2023-08-24T07:51:17;22.90;68.00
10192;DHT22;17580;50.850;4.504;2023-08-24T07:53:44;22.90;69.20
10192;DHT22;17580;50.850;4.504;2023-08-24T07:56:12;23.00;67.40
10192;DHT22;17580;50.850;4.504;2023-08-24T07:58:39;23.00;67.50
10192;DHT22;17580;50.850;4.504;2023-08-24T08:01:06;23.00;67.80
10192;DHT22;17580;50.850;4.504;2023-08-24T08:03:33;23.00;68.10
10192;DHT22;17580;50.850;4.504;2023-08-24T08:06:01;23.10;68.00
10192;DHT22;17580;50.850;4.504;2023-08-24T08:08:29;23.10;68.30
10192;DHT22;17580;50.850;4.504;2023-08-24T08:11:00;23.10;67.30
10192;DHT22;17580;50.850;4.504;2023-08-24T08:13:29;23.10;66.50
10192;DHT22;17580;50.850;4.504;2023-08-24T08:16:01;23.10;65.70
10192;DHT22;17580;50.850;4.504;2023-08-24T08:18:28;23.20;66.50
10192;DHT22;17580;50.850;4.504;2023-08-24T08:20:55;23.20;65.90
10192;DHT22;17580;50.850;4.504;2023-08-24T08:23:22;23.20;67.00
10192;DHT22;17580;50.850;4.504;2023-08-24T08:25:49;23.20;66.90
10192;DHT22;17580;50.850;4.504;2023-08-24T08:28:17;23.20;67.40
10192;DHT22;17580;50.850;4.504;2023-08-24T08:30:48;23.30;67.20
10192;DHT22;17580;50.850;4.504;2023-08-24T08:33:15;23.30;65.30
10192;DHT22;17580;50.850;4.504;2023-08-24T08:35:43;23.20;64.40
10192;DHT22;17580;50.850;4.504;2023-08-24T08:38:10;23.30;64.70
10192;DHT22;17580;50.850;4.504;2023-08-24T08:40:37;23.40;64.30
10192;DHT22;17580;50.850;4.504;2023-08-24T08:43:06;23.50;64.90
10192;DHT22;17580;50.850;4.504;2023-08-24T08:45:33;23.50;63.90
10192;DHT22;17580;50.850;4.504;2023-08-24T08:48:02;23.60;64.40
10192;DHT22;17580;50.850;4.504;2023-08-24T08:50:32;23.70;62.90
10192;DHT22;17580;50.850;4.504;2023-08-24T08:53:01;23.90;63.10
10192;DHT22;17580;50.850;4.504;2023-08-24T08:55:28;23.90;63.80
10192;DHT22;17580;50.850;4.504;2023-08-24T08:57:57;24.00;62.40
10192;DHT22;17580;50.850;4.504;2023-08-24T09:00:25;24.10;61.50
10192;DHT22;17580;50.850;4.504;2023-08-24T09:02:53;24.10;60.50
10192;DHT22;17580;50.850;4.504;2023-08-24T09:05:22;24.10;59.30
10192;DHT22;17580;50.850;4.504;2023-08-24T09:07:53;24.10;59.10
10192;DHT22;17580;50.850;4.504;2023-08-24T09:10:21;24.00;60.80
10192;DHT22;17580;50.850;4.504;2023-08-24T09:12:48;23.90;59.80
10192;DHT22;17580;50.850;4.504;2023-08-24T09:15:23;23.70;59.90
10192;DHT22;17580;50.850;4.504;2023-08-24T09:17:51;23.60;60.50
10192;DHT22;17580;50.850;4.504;2023-08-24T09:20:18;23.50;62.70
10192;DHT22;17580;50.850;4.504;2023-08-24T09:22:46;23.50;62.00
10192;DHT22;17580;50.850;4.504;2023-08-24T09:25:13;23.40;61.90
10192;DHT22;17580;50.850;4.504;2023-08-24T09:27:40;23.30;62.60
10192;DHT22;17580;50.850;4.504;2023-08-24T09:30:08;23.30;63.70
10192;DHT22;17580;50.850;4.504;2023-08-24T09:32:35;23.20;63.50
10192;DHT22;17580;50.850;4.504;2023-08-24T09:35:03;23.10;64.90
10192;DHT22;17580;50.850;4.504;2023-08-24T09:37:32;23.10;65.50
10192;DHT22;17580;50.850;4.504;2023-08-24T09:40:05;23.00;66.00
10192;DHT22;17580;50.850;4.504;2023-08-24T09:42:38;22.80;68.30
10192;DHT22;17580;50.850;4.504;2023-08-24T09:45:07;22.70;71.60
10192;DHT22;17580;50.850;4.504;2023-08-24T09:47:35;22.60;72.10
10192;DHT22;17580;50.850;4.504;2023-08-24T09:50:03;22.40;68.50
10192;DHT22;17580;50.850;4.504;2023-08-24T09:52:32;22.40;69.90
10192;DHT22;17580;50.850;4.504;2023-08-24T09:55:04;22.20;73.30
10192;DHT22;17580;50.850;4.504;2023-08-24T09:57:36;21.90;75.00
10192;DHT22;17580;50.850;4.504;2023-08-24T10:00:06;21.60;77.50
10192;DHT22;17580;50.850;4.504;2023-08-24T10:02:37;21.40;79.00
10192;DHT22;17580;50.850;4.504;2023-08-24T10:05:08;21.40;81.90
10192;DHT22;17580;50.850;4.504;2023-08-24T10:07:37;21.30;83.60
10192;DHT22;17580;50.850;4.504;2023-08-24T10:10:09;21.20;84.80
10192;DHT22;17580;50.850;4.504;2023-08-24T10:12:44;21.20;85.90
10192;DHT22;17580;50.850;4.504;2023-08-24T10:15:13;21.20;86.20
10192;DHT22;17580;50.850;4.504;2023-08-24T10:17:40;21.10;87.30
10192;DHT22;17580;50.850;4.504;2023-08-24T10:20:10;21.10;87.80
10192;DHT22;17580;50.850;4.504;2023-08-24T10:22:38;21.10;91.00
10192;DHT22;17580;50.850;4.504;2023-08-24T10:25:08;21.00;91.40
10192;DHT22;17580;50.850;4.504;2023-08-24T10:27:37;20.90;91.10
10192;DHT22;17580;50.850;4.504;2023-08-24T10:30:10;20.80;96.20
10192;DHT22;17580;50.850;4.504;2023-08-24T10:32:39;20.80;99.20
10192;DHT22;17580;50.850;4.504;2023-08-24T10:35:07;20.80;99.90
10192;DHT22;17580;50.850;4.504;2023-08-24T10:37:34;20.80;99.90
10192;DHT22;17580;50.850;4.504;2023-08-24T10:40:01;20.70;99.90
10192;DHT22;17580;50.850;4.504;2023-08-24T10:42:43;20.70;99.90
10192;DHT22;17580;50.850;4.504;2023-08-24T10:45:12;20.70;99.90
10192;DHT22;17580;50.850;4.504;2023-08-24T10:47:44;20.70;99.90
10192;DHT22;17580;50.850;4.504;2023-08-24T10:50:12;20.80;99.90
10192;DHT22;17580;50.850;4.504;2023-08-24T10:52:43;20.80;99.90
10192;DHT22;17580;50.850;4.504;2023-08-24T10:55:24;20.80;99.90
10192;DHT22;17580;50.850;4.504;2023-08-24T10:57:58;20.80;99.90
10192;DHT22;17580;50.850;4.504;2023-08-24T11:00:29;20.90;99.90
10192;DHT22;17580;50.850;4.504;2023-08-24T11:02:57;21.00;99.90
10192;DHT22;17580;50.850;4.504;2023-08-24T11:05:26;21.00;99.90
10192;DHT22;17580;50.850;4.504;2023-08-24T11:07:57;21.00;99.90
10192;DHT22;17580;50.850;4.504;2023-08-24T11:10:30;21.10;99.90
10192;DHT22;17580;50.850;4.504;2023-08-24T11:13:12;21.10;99.90
10192;DHT22;17580;50.850;4.504;2023-08-24T11:15:42;21.20;99.90
10192;DHT22;17580;50.850;4.504;2023-08-24T11:18:21;21.10;99.90
10192;DHT22;17580;50.850;4.504;2023-08-24T11:20:50;21.10;99.90
10192;DHT22;17580;50.850;4.504;2023-08-24T11:23:18;21.10;99.90
10192;DHT22;17580;50.850;4.504;2023-08-24T11:25:46;21.20;99.90
10192;DHT22;17580;50.850;4.504;2023-08-24T11:28:19;21.10;99.90
10192;DHT22;17580;50.850;4.504;2023-08-24T11:30:47;21.10;99.90
10192;DHT22;17580;50.850;4.504;2023-08-24T11:33:14;21.10;99.90
10192;DHT22;17580;50.850;4.504;2023-08-24T11:35:43;21.00;99.90
10192;DHT22;17580;50.850;4.504;2023-08-24T11:38:10;21.00;99.90
10192;DHT22;17580;50.850;4.504;2023-08-24T11:40:38;21.00;99.90
10192;DHT22;17580;50.850;4.504;2023-08-24T11:43:05;21.10;99.90
10192;DHT22;17580;50.850;4.504;2023-08-24T11:45:35;21.10;99.90
10192;DHT22;17580;50.850;4.504;2023-08-24T11:48:04;21.10;99.90
10192;DHT22;17580;50.850;4.504;2023-08-24T11:50:33;21.10;99.90
10192;DHT22;17580;50.850;4.504;2023-08-24T11:53:01;21.20;99.90
10192;DHT22;17580;50.850;4.504;2023-08-24T11:55:28;21.20;99.90
10192;DHT22;17580;50.850;4.504;2023-08-24T11:57:55;21.20;99.90
10192;DHT22;17580;50.850;4.504;2023-08-24T12:00:22;21.20;99.90
10192;DHT22;17580;50.850;4.504;2023-08-24T12:02:51;21.20;99.90
10192;DHT22;17580;50.850;4.504;2023-08-24T12:05:23;21.20;99.90
10192;DHT22;17580;50.850;4.504;2023-08-24T12:07:51;21.30;99.90
10192;DHT22;17580;50.850;4.504;2023-08-24T12:10:19;21.30;99.90
10192;DHT22;17580;50.850;4.504;2023-08-24T12:12:47;21.30;99.90
10192;DHT22;17580;50.850;4.504;2023-08-24T12:15:18;21.30;99.90
10192;DHT22;17580;50.850;4.504;2023-08-24T12:17:46;21.30;99.90
10192;DHT22;17580;50.850;4.504;2023-08-24T12:20:22;21.20;99.90
10192;DHT22;17580;50.850;4.504;2023-08-24T12:22:53;21.20;99.90
10192;DHT22;17580;50.850;4.504;2023-08-24T12:25:24;21.20;99.90
10192;DHT22;17580;50.850;4.504;2023-08-24T12:27:52;21.00;99.90
10192;DHT22;17580;50.850;4.504;2023-08-24T12:30:20;21.00;99.90
10192;DHT22;17580;50.850;4.504;2023-08-24T12:32:47;20.90;99.90
10192;DHT22;17580;50.850;4.504;2023-08-24T12:35:16;20.70;99.90
10192;DHT22;17580;50.850;4.504;2023-08-24T12:37:45;20.70;99.90
10192;DHT22;17580;50.850;4.504;2023-08-24T12:40:13;20.60;99.90
10192;DHT22;17580;50.850;4.504;2023-08-24T12:42:40;20.50;99.90
10192;DHT22;17580;50.850;4.504;2023-08-24T12:45:08;20.50;99.90
10192;DHT22;17580;50.850;4.504;2023-08-24T12:47:35;20.40;99.90
10192;DHT22;17580;50.850;4.504;2023-08-24T12:50:05;20.40;99.90
10192;DHT22;17580;50.850;4.504;2023-08-24T12:52:33;20.20;99.90
10192;DHT22;17580;50.850;4.504;2023-08-24T12:55:02;20.30;99.90
10192;DHT22;17580;50.850;4.504;2023-08-24T12:57:30;20.30;99.90
10192;DHT22;17580;50.850;4.504;2023-08-24T12:59:57;20.20;99.90
10192;DHT22;17580;50.850;4.504;2023-08-24T13:02:24;20.20;99.90
10192;DHT22;17580;50.850;4.504;2023-08-24T13:04:51;20.10;99.90
10192;DHT22;17580;50.850;4.504;2023-08-24T13:07:18;20.00;99.90
10192;DHT22;17580;50.850;4.504;2023-08-24T13:09:45;19.90;99.90
10192;DHT22;17580;50.850;4.504;2023-08-24T13:12:14;20.00;99.90
10192;DHT22;17580;50.850;4.504;2023-08-24T13:14:41;19.90;99.90
10192;DHT22;17580;50.850;4.504;2023-08-24T13:17:08;19.90;99.90
10192;DHT22;17580;50.850;4.504;2023-08-24T13:19:35;19.90;99.90
10192;DHT22;17580;50.850;4.504;2023-08-24T13:22:02;19.80;99.90
10192;DHT22;17580;50.850;4.504;2023-08-24T13:24:28;19.90;99.90
10192;DHT22;17580;50.850;4.504;2023-08-24T13:26:56;19.80;99.90
10192;DHT22;17580;50.850;4.504;2023-08-24T13:29:24;19.80;99.90
10192;DHT22;17580;50.850;4.504;2023-08-24T13:31:51;19.80;99.90
10192;DHT22;17580;50.850;4.504;2023-08-24T13:34:18;19.80;99.90
10192;DHT22;17580;50.850;4.504;2023-08-24T13:36:46;19.80;99.90
10192;DHT22;17580;50.850;4.504;2023-08-24T13:39:13;19.80;99.90
10192;DHT22;17580;50.850;4.504;2023-08-24T13:41:40;19.70;99.90
10192;DHT22;17580;50.850;4.504;2023-08-24T13:44:07;19.70;99.90
10192;DHT22;17580;50.850;4.504;2023-08-24T13:46:36;19.70;99.90
10192;DHT22;17580;50.850;4.504;2023-08-24T13:49:03;19.60;99.90
10192;DHT22;17580;50.850;4.504;2023-08-24T13:51:30;19.70;99.90
10192;DHT22;17580;50.850;4.504;2023-08-24T13:53:57;19.60;99.90
10192;DHT22;17580;50.850;4.504;2023-08-24T13:56:24;19.70;99.90
10192;DHT22;17580;50.850;4.504;2023-08-24T13:58:51;19.80;99.90
10192;DHT22;17580;50.850;4.504;2023-08-24T14:01:18;19.70;99.90
10192;DHT22;17580;50.850;4.504;2023-08-24T14:03:47;19.80;99.90
10192;DHT22;17580;50.850;4.504;2023-08-24T14:06:15;19.80;99.90
10192;DHT22;17580;50.850;4.504;2023-08-24T14:08:42;19.80;99.90
10192;DHT22;17580;50.850;4.504;2023-08-24T14:11:10;19.90;99.90
10192;DHT22;17580;50.850;4.504;2023-08-24T14:13:37;19.90;99.90
10192;DHT22;17580;50.850;4.504;2023-08-24T14:16:04;19.90;99.90
10192;DHT22;17580;50.850;4.504;2023-08-24T14:18:31;20.00;99.90
10192;DHT22;17580;50.850;4.504;2023-08-24T14:21:03;20.00;99.90
10192;DHT22;17580;50.850;4.504;2023-08-24T14:23:30;20.00;99.90
10192;DHT22;17580;50.850;4.504;2023-08-24T14:25:57;20.00;99.90
10192;DHT22;17580;50.850;4.504;2023-08-24T14:28:24;20.10;99.90
10192;DHT22;17580;50.850;4.504;2023-08-24T14:30:51;20.00;99.90
10192;DHT22;17580;50.850;4.504;2023-08-24T14:33:18;20.10;99.90
10192;DHT22;17580;50.850;4.504;2023-08-24T14:35:52;20.10;99.90
10192;DHT22;17580;50.850;4.504;2023-08-24T14:38:21;20.20;99.90
10192;DHT22;17580;50.850;4.504;2023-08-24T14:40:48;20.10;99.90
10192;DHT22;17580;50.850;4.504;2023-08-24T14:43:15;20.20;99.90
10192;DHT22;17580;50.850;4.504;2023-08-24T14:45:42;20.30;99.90
10192;DHT22;17580;50.850;4.504;2023-08-24T14:48:09;20.30;99.90
10192;DHT22;17580;50.850;4.504;2023-08-24T14:50:38;20.50;99.90
10192;DHT22;17580;50.850;4.504;2023-08-24T14:53:05;20.50;99.90
10192;DHT22;17580;50.850;4.504;2023-08-24T14:55:34;20.60;99.90
10192;DHT22;17580;50.850;4.504;2023-08-24T14:58:01;20.70;99.90
10192;DHT22;17580;50.850;4.504;2023-08-24T15:00:29;20.70;99.90
10192;DHT22;17580;50.850;4.504;2023-08-24T15:02:56;20.80;99.90
10192;DHT22;17580;50.850;4.504;2023-08-24T15:05:23;20.90;99.90
10192;DHT22;17580;50.850;4.504;2023-08-24T15:07:50;21.00;99.90
10192;DHT22;17580;50.850;4.504;2023-08-24T15:10:17;21.00;99.30
10192;DHT22;17580;50.850;4.504;2023-08-24T15:12:46;21.00;99.10
10192;DHT22;17580;50.850;4.504;2023-08-24T15:15:13;21.00;98.60
10192;DHT22;17580;50.850;4.504;2023-08-24T15:17:43;21.00;97.50
10192;DHT22;17580;50.850;4.504;2023-08-24T15:20:11;21.10;98.90
10192;DHT22;17580;50.850;4.504;2023-08-24T15:22:39;21.20;96.60
10192;DHT22;17580;50.850;4.504;2023-08-24T15:25:07;21.20;96.40
10192;DHT22;17580;50.850;4.504;2023-08-24T15:27:35;21.20;96.80
10192;DHT22;17580;50.850;4.504;2023-08-24T15:30:05;21.20;99.90
10192;DHT22;17580;50.850;4.504;2023-08-24T15:32:32;21.20;94.50
10192;DHT22;17580;50.850;4.504;2023-08-24T15:34:59;21.30;94.60
10192;DHT22;17580;50.850;4.504;2023-08-24T15:37:27;21.30;94.00